Time,TemperatureF,DewpointF,PressureIn,WindDirection,WindDirectionDegrees,WindSpeedMPH,WindSpeedGustMPH,Humidity,HourlyPrecipIn,Conditions,Clouds,dailyrainin,SolarRadiationWatts/m^2,SoftwareType,DateUTC
2013-05-05 00:01:00,60.0,32.0,-100.00,NNE,16,8.0,12.0,34,0.00,,,0.00,0.000000,,2013-05-05 07:01:00,
2013-05-05 00:11:00,60.0,32.0,-100.00,NNE,16,8.0,12.0,34,0.00,,,0.00,0.000000,,2013-05-05 07:11:00,
2013-05-05 00:21:00,60.0,32.0,-100.00,NNE,16,8.0,12.0,34,0.00,,,0.00,0.000000,,2013-05-05 07:21:00,
2013-05-05 00:52:00,56.0,31.0,-100.00,NNE,18,8.0,13.0,39,0.00,,,0.00,0.000000,,2013-05-05 07:52:00,
2013-05-05 01:02:00,56.0,31.0,-100.00,NNE,18,8.0,13.0,39,0.00,,,0.00,0.000000,,2013-05-05 08:02:00,
2013-05-05 01:11:00,56.0,31.0,-100.00,NNE,18,8.0,13.0,39,0.00,,,0.00,0.000000,,2013-05-05 08:11:00,
2013-05-05 01:21:00,56.0,31.0,-100.00,NNE,18,8.0,13.0,39,0.00,,,0.00,0.000000,,2013-05-05 08:21:00,
2013-05-05 01:53:00,54.0,31.0,-100.00,North,8,3.0,10.0,42,0.00,,,0.00,0.000000,,2013-05-05 08:53:00,
2013-05-05 02:01:00,54.0,31.0,-100.00,North,8,3.0,10.0,42,0.00,,,0.00,0.000000,,2013-05-05 09:01:00,
2013-05-05 02:11:00,54.0,31.0,-100.00,North,8,3.0,10.0,42,0.00,,,0.00,0.000000,,2013-05-05 09:11:00,
2013-05-05 02:21:00,54.0,31.0,-100.00,North,8,3.0,10.0,42,0.00,,,0.00,0.000000,,2013-05-05 09:21:00,
2013-05-05 02:52:00,56.0,33.0,-100.00,NNE,21,7.0,12.0,41,0.00,,,0.00,0.000000,,2013-05-05 09:52:00,
2013-05-05 03:02:00,56.0,33.0,-100.00,NNE,21,7.0,12.0,41,0.00,,,0.00,0.000000,,2013-05-05 10:02:00,
2013-05-05 03:12:00,56.0,33.0,-100.00,NNE,21,7.0,12.0,41,0.00,,,0.00,0.000000,,2013-05-05 10:12:00,
2013-05-05 03:22:00,56.0,33.0,-100.00,NNE,21,7.0,12.0,41,0.00,,,0.00,0.000000,,2013-05-05 10:22:00,
2013-05-05 03:53:00,56.0,32.0,-100.00,ENE,68,4.0,10.0,40,0.00,,,0.00,0.000000,,2013-05-05 10:53:00,
2013-05-05 04:01:00,56.0,32.0,-100.00,ENE,68,4.0,10.0,40,0.00,,,0.00,0.000000,,2013-05-05 11:01:00,
2013-05-05 04:11:00,56.0,32.0,-100.00,ENE,68,4.0,10.0,40,0.00,,,0.00,0.000000,,2013-05-05 11:11:00,
2013-05-05 04:21:00,56.0,32.0,-100.00,ENE,68,4.0,10.0,40,0.00,,,0.00,0.000000,,2013-05-05 11:21:00,
2013-05-05 04:52:00,51.0,31.0,-100.00,NNW,335,2.0,9.0,47,0.00,,,0.00,0.000000,,2013-05-05 11:52:00,
2013-05-05 05:01:00,51.0,31.0,-100.00,NNW,335,2.0,9.0,47,0.00,,,0.00,0.000000,,2013-05-05 12:01:00,
2013-05-05 05:11:00,51.0,31.0,-100.00,NNW,335,2.0,9.0,47,0.00,,,0.00,0.000000,,2013-05-05 12:11:00,
2013-05-05 05:21:00,51.0,31.0,-100.00,NNW,335,2.0,9.0,47,0.00,,,0.00,0.000000,,2013-05-05 12:21:00,
2013-05-05 05:52:00,49.0,31.0,-100.00,WSW,237,4.0,8.0,50,0.00,,,0.00,0.000000,,2013-05-05 12:52:00,
2013-05-05 06:01:00,49.0,31.0,-100.00,WSW,237,4.0,8.0,50,0.00,,,0.00,0.000000,,2013-05-05 13:01:00,
2013-05-05 06:11:00,49.0,31.0,-100.00,WSW,237,4.0,8.0,50,0.00,,,0.00,0.000000,,2013-05-05 13:11:00,
2013-05-05 06:21:00,49.0,31.0,-100.00,WSW,237,4.0,8.0,50,0.00,,,0.00,0.000000,,2013-05-05 13:21:00,
2013-05-05 06:52:00,55.0,33.0,-100.00,NE,40,5.0,10.0,43,0.00,,,0.00,54.000000,,2013-05-05 13:52:00,
2013-05-05 07:01:00,55.0,33.0,-100.00,NE,40,5.0,10.0,43,0.00,,,0.00,54.000000,,2013-05-05 14:01:00,
2013-05-05 07:11:00,55.0,33.0,-100.00,NE,40,5.0,10.0,43,0.00,,,0.00,54.000000,,2013-05-05 14:11:00,
2013-05-05 07:21:00,55.0,33.0,-100.00,NE,40,5.0,10.0,43,0.00,,,0.00,54.000000,,2013-05-05 14:21:00,
2013-05-05 07:52:00,59.0,33.0,-100.00,NNE,31,14.0,22.0,37,0.00,,,0.00,236.000000,,2013-05-05 14:52:00,
2013-05-05 08:01:00,59.0,33.0,-100.00,NNE,31,14.0,22.0,37,0.00,,,0.00,236.000000,,2013-05-05 15:01:00,
2013-05-05 08:11:00,59.0,33.0,-100.00,NNE,31,14.0,22.0,37,0.00,,,0.00,236.000000,,2013-05-05 15:11:00,
2013-05-05 08:21:00,59.0,33.0,-100.00,NNE,31,14.0,22.0,37,0.00,,,0.00,236.000000,,2013-05-05 15:21:00,
2013-05-05 08:53:00,64.0,35.0,-100.00,NNE,31,14.0,23.0,34,0.00,,,0.00,440.000000,,2013-05-05 15:53:00,
2013-05-05 09:03:00,64.0,35.0,-100.00,NNE,31,14.0,23.0,34,0.00,,,0.00,440.000000,,2013-05-05 16:03:00,
2013-05-05 09:12:00,64.0,35.0,-100.00,NNE,31,14.0,23.0,34,0.00,,,0.00,440.000000,,2013-05-05 16:12:00,
2013-05-05 09:22:00,64.0,35.0,-100.00,NNE,31,14.0,23.0,34,0.00,,,0.00,440.000000,,2013-05-05 16:22:00,
2013-05-05 09:53:00,71.0,33.0,-100.00,NE,55,16.0,23.0,25,0.00,,,0.00,635.000000,,2013-05-05 16:53:00,
2013-05-05 10:02:00,71.0,33.0,-100.00,NE,55,16.0,23.0,25,0.00,,,0.00,635.000000,,2013-05-05 17:02:00,
2013-05-05 10:12:00,71.0,33.0,-100.00,NE,55,16.0,23.0,25,0.00,,,0.00,635.000000,,2013-05-05 17:12:00,
2013-05-05 10:23:00,71.0,33.0,-100.00,NE,55,16.0,23.0,25,0.00,,,0.00,635.000000,,2013-05-05 17:23:00,
2013-05-05 10:52:00,74.0,34.0,-100.00,NE,50,15.0,24.0,23,0.00,,,0.00,802.000000,,2013-05-05 17:52:00,
2013-05-05 11:01:00,74.0,34.0,-100.00,NE,50,15.0,24.0,23,0.00,,,0.00,802.000000,,2013-05-05 18:01:00,
2013-05-05 11:11:00,74.0,34.0,-100.00,NE,50,15.0,24.0,23,0.00,,,0.00,802.000000,,2013-05-05 18:11:00,
2013-05-05 11:21:00,74.0,34.0,-100.00,NE,50,15.0,24.0,23,0.00,,,0.00,802.000000,,2013-05-05 18:21:00,
2013-05-05 11:52:00,76.0,33.0,-100.00,NE,48,13.0,22.0,21,0.00,,,0.00,926.000000,,2013-05-05 18:52:00,
2013-05-05 12:01:00,76.0,33.0,-100.00,NE,48,13.0,22.0,21,0.00,,,0.00,926.000000,,2013-05-05 19:01:00,
2013-05-05 12:11:00,76.0,33.0,-100.00,NE,48,13.0,22.0,21,0.00,,,0.00,926.000000,,2013-05-05 19:11:00,
2013-05-05 12:21:00,76.0,33.0,-100.00,NE,48,13.0,22.0,21,0.00,,,0.00,926.000000,,2013-05-05 19:21:00,
2013-05-05 12:52:00,79.0,34.0,-100.00,ENE,63,11.0,21.0,20,0.00,,,0.00,1000.000000,,2013-05-05 19:52:00,
2013-05-05 13:01:00,79.0,34.0,-100.00,ENE,63,11.0,21.0,20,0.00,,,0.00,1000.000000,,2013-05-05 20:01:00,
2013-05-05 13:11:00,79.0,34.0,-100.00,ENE,63,11.0,21.0,20,0.00,,,0.00,1000.000000,,2013-05-05 20:11:00,
2013-05-05 13:21:00,79.0,34.0,-100.00,ENE,63,11.0,21.0,20,0.00,,,0.00,1000.000000,,2013-05-05 20:21:00,
2013-05-05 13:52:00,80.0,34.0,-100.00,NE,53,12.0,19.0,19,0.00,,,0.00,1016.000000,,2013-05-05 20:52:00,
2013-05-05 14:01:00,80.0,34.0,-100.00,NE,53,12.0,19.0,19,0.00,,,0.00,1016.000000,,2013-05-05 21:01:00,
2013-05-05 14:11:00,80.0,34.0,-100.00,NE,53,12.0,19.0,19,0.00,,,0.00,1016.000000,,2013-05-05 21:11:00,
2013-05-05 14:21:00,80.0,34.0,-100.00,NE,53,12.0,19.0,19,0.00,,,0.00,1016.000000,,2013-05-05 21:21:00,
2013-05-05 14:53:00,81.0,33.0,-100.00,East,84,11.0,21.0,18,0.00,,,0.00,977.000000,,2013-05-05 21:53:00,
2013-05-05 15:02:00,81.0,33.0,-100.00,East,84,11.0,21.0,18,0.00,,,0.00,977.000000,,2013-05-05 22:02:00,
2013-05-05 15:12:00,81.0,33.0,-100.00,East,84,11.0,21.0,18,0.00,,,0.00,977.000000,,2013-05-05 22:12:00,
2013-05-05 15:22:00,81.0,33.0,-100.00,East,84,11.0,21.0,18,0.00,,,0.00,977.000000,,2013-05-05 22:22:00,
2013-05-05 15:52:00,82.0,31.0,-100.00,ENE,63,8.0,25.0,16,0.00,,,0.00,885.000000,,2013-05-05 22:52:00,
2013-05-05 16:02:00,82.0,31.0,-100.00,ENE,63,8.0,25.0,16,0.00,,,0.00,885.000000,,2013-05-05 23:02:00,
2013-05-05 16:11:00,82.0,31.0,-100.00,ENE,63,8.0,25.0,16,0.00,,,0.00,885.000000,,2013-05-05 23:11:00,
2013-05-05 16:21:00,82.0,31.0,-100.00,ENE,63,8.0,25.0,16,0.00,,,0.00,885.000000,,2013-05-05 23:21:00,
2013-05-05 16:52:00,83.0,31.0,-100.00,ENE,64,6.0,16.0,15,0.00,,,0.00,745.000000,,2013-05-05 23:52:00,
2013-05-05 17:01:00,83.0,31.0,-100.00,ENE,64,6.0,16.0,15,0.00,,,0.00,745.000000,,2013-05-06 00:01:00,
2013-05-05 17:11:00,83.0,31.0,-100.00,ENE,64,6.0,16.0,15,0.00,,,0.00,745.000000,,2013-05-06 00:11:00,
2013-05-05 17:21:00,83.0,31.0,-100.00,ENE,64,6.0,16.0,15,0.00,,,0.00,745.000000,,2013-05-06 00:21:00,
2013-05-05 17:51:00,83.0,31.0,-100.00,ENE,61,10.0,25.0,15,0.00,,,0.00,564.000000,,2013-05-06 00:51:00,
2013-05-05 18:01:00,83.0,31.0,-100.00,ENE,61,10.0,25.0,15,0.00,,,0.00,564.000000,,2013-05-06 01:01:00,
2013-05-05 18:11:00,83.0,31.0,-100.00,ENE,61,10.0,25.0,15,0.00,,,0.00,564.000000,,2013-05-06 01:11:00,
2013-05-05 18:21:00,83.0,31.0,-100.00,ENE,61,10.0,25.0,15,0.00,,,0.00,564.000000,,2013-05-06 01:21:00,
2013-05-05 18:52:00,82.0,31.0,-100.00,NE,41,10.0,17.0,16,0.00,,,0.00,370.000000,,2013-05-06 01:52:00,
2013-05-05 19:01:00,82.0,31.0,-100.00,NE,41,10.0,17.0,16,0.00,,,0.00,370.000000,,2013-05-06 02:01:00,
2013-05-05 19:11:00,82.0,31.0,-100.00,NE,41,10.0,17.0,16,0.00,,,0.00,370.000000,,2013-05-06 02:11:00,
2013-05-05 19:21:00,82.0,31.0,-100.00,NE,41,10.0,17.0,16,0.00,,,0.00,370.000000,,2013-05-06 02:21:00,
2013-05-05 19:52:00,79.0,34.0,-100.00,NE,41,7.0,15.0,20,0.00,,,0.00,176.000000,,2013-05-06 02:52:00,
2013-05-05 20:01:00,79.0,34.0,-100.00,NE,41,7.0,15.0,20,0.00,,,0.00,176.000000,,2013-05-06 03:01:00,
2013-05-05 20:11:00,79.0,34.0,-100.00,NE,41,7.0,15.0,20,0.00,,,0.00,176.000000,,2013-05-06 03:11:00,
2013-05-05 20:22:00,79.0,34.0,-100.00,NE,41,7.0,15.0,20,0.00,,,0.00,176.000000,,2013-05-06 03:22:00,
2013-05-05 20:52:00,70.0,37.0,-100.00,North,8,8.0,10.0,30,0.00,,,0.00,23.000000,,2013-05-06 03:52:00,
2013-05-05 21:02:00,70.0,37.0,-100.00,North,8,8.0,10.0,30,0.00,,,0.00,23.000000,,2013-05-06 04:02:00,
2013-05-05 21:12:00,70.0,37.0,-100.00,North,8,8.0,10.0,30,0.00,,,0.00,23.000000,,2013-05-06 04:12:00,
2013-05-05 21:23:00,70.0,37.0,-100.00,North,8,8.0,10.0,30,0.00,,,0.00,23.000000,,2013-05-06 04:23:00,
2013-05-05 21:53:00,68.0,35.0,-100.00,NNE,21,9.0,11.0,30,0.00,,,0.00,0.000000,,2013-05-06 04:53:00,
2013-05-05 22:02:00,68.0,35.0,-100.00,NNE,21,9.0,11.0,30,0.00,,,0.00,0.000000,,2013-05-06 05:02:00,
2013-05-05 22:12:00,68.0,35.0,-100.00,NNE,21,9.0,11.0,30,0.00,,,0.00,0.000000,,2013-05-06 05:12:00,
2013-05-05 22:22:00,68.0,35.0,-100.00,NNE,21,9.0,11.0,30,0.00,,,0.00,0.000000,,2013-05-06 05:22:00,
2013-05-05 22:52:00,64.0,34.0,-100.00,NNE,19,8.0,11.0,33,0.00,,,0.00,0.000000,,2013-05-06 05:52:00,
2013-05-05 23:02:00,64.0,34.0,-100.00,NNE,19,8.0,11.0,33,0.00,,,0.00,0.000000,,2013-05-06 06:02:00,
2013-05-05 23:12:00,64.0,34.0,-100.00,NNE,19,8.0,11.0,33,0.00,,,0.00,0.000000,,2013-05-06 06:12:00,
2013-05-05 23:21:00,64.0,34.0,-100.00,NNE,19,8.0,11.0,33,0.00,,,0.00,0.000000,,2013-05-06 06:21:00,
2013-05-05 23:52:00,61.0,35.0,-100.00,NNE,30,7.0,9.0,37,0.00,,,0.00,0.000000,,2013-05-06 06:52:00,